createdAt,value
2022-09-04T00:00:19.261Z,11.05
2022-09-04T00:02:34.484Z,11.77
2022-09-04T00:05:00.565Z,11.90
2022-09-04T00:07:02.239Z,11.70
2022-09-04T00:09:24.696Z,11.45
2022-09-04T00:11:45.062Z,11.60
2022-09-04T00:13:53.041Z,11.52
2022-09-04T00:16:07.459Z,11.05
2022-09-04T00:18:13.937Z,10.70
2022-09-04T00:20:32.238Z,10.07
2022-09-04T00:22:58.324Z,9.75
2022-09-04T00:25:14.322Z,13.20
2022-09-04T00:27:23.851Z,11.32
2022-09-04T00:29:40.585Z,9.43
2022-09-04T00:31:51.142Z,8.02
2022-09-04T00:34:19.147Z,6.63
2022-09-04T00:36:23.105Z,6.15
2022-09-04T00:38:47.934Z,6.10
2022-09-04T00:41:25.445Z,6.43
2022-09-04T00:43:48.718Z,7.13
2022-09-04T00:46:18.489Z,6.53
2022-09-04T00:48:52.187Z,7.10
2022-09-04T00:50:59.888Z,6.70
2022-09-04T00:53:06.044Z,5.93
2022-09-04T00:55:29.405Z,7.13
2022-09-04T00:57:56.617Z,7.07
2022-09-04T01:00:18.186Z,6.22
2022-09-04T01:02:38.542Z,7.00
2022-09-04T01:05:07.875Z,7.13
2022-09-04T01:07:31.363Z,7.22
2022-09-04T01:09:32.974Z,7.88
2022-09-04T01:11:51.629Z,8.60
2022-09-04T01:14:29.738Z,9.48
2022-09-04T01:16:37.820Z,8.80
2022-09-04T01:18:59.946Z,8.75
2022-09-04T01:21:31.045Z,8.95
2022-09-04T01:24:08.901Z,9.60
2022-09-04T01:26:21.394Z,9.52
2022-09-04T01:28:48.317Z,9.18
2022-09-04T01:30:56.306Z,9.30
2022-09-04T01:33:19.350Z,8.57
2022-09-04T01:35:44.828Z,9.07
2022-09-04T01:38:04.485Z,9.82
2022-09-04T01:40:20.971Z,9.07
2022-09-04T01:42:30.343Z,8.48
2022-09-04T01:44:33.582Z,7.60
2022-09-04T01:46:58.162Z,7.40
2022-09-04T01:49:07.336Z,8.10
2022-09-04T01:51:16.388Z,8.55
2022-09-04T01:53:24.917Z,8.43
2022-09-04T01:55:57.421Z,8.05
2022-09-04T01:58:36.575Z,8.98
2022-09-04T02:01:15.847Z,8.48
2022-09-04T02:03:32.958Z,9.85
2022-09-04T02:06:19.376Z,10.32
2022-09-04T02:08:27.093Z,9.82
2022-09-04T02:10:33.644Z,11.18
2022-09-04T02:12:58.389Z,10.63
2022-09-04T02:15:31.188Z,10.25
2022-09-04T02:17:59.016Z,10.70
2022-09-04T02:20:29.677Z,9.93
2022-09-04T02:22:52.829Z,10.27
2022-09-04T02:25:16.171Z,10.68
2022-09-04T02:27:24.065Z,11.05
2022-09-04T02:30:04.202Z,10.88
2022-09-04T02:32:14.243Z,10.30
2022-09-04T02:34:25.432Z,10.98
2022-09-04T02:36:34.026Z,10.38
2022-09-04T02:39:11.928Z,10.65
2022-09-04T02:41:26.741Z,10.82
2022-09-04T02:43:42.843Z,10.00
2022-09-04T02:46:05.702Z,10.30
2022-09-04T02:48:18.727Z,10.60
2022-09-04T02:50:39.023Z,10.63
2022-09-04T02:52:59.634Z,9.48
2022-09-04T02:55:29.168Z,10.27
2022-09-04T02:57:58.352Z,9.98
2022-09-04T03:00:18.366Z,10.13
2022-09-04T03:02:34.759Z,10.57
2022-09-04T03:04:50.293Z,11.02
2022-09-04T03:07:11.484Z,10.88
2022-09-04T03:09:18.160Z,10.85
2022-09-04T03:11:33.828Z,11.05
2022-09-04T03:13:56.480Z,11.00
2022-09-04T03:16:21.307Z,12.40
2022-09-04T03:18:52.964Z,14.18
2022-09-04T03:21:03.436Z,13.52
2022-09-04T03:23:12.917Z,15.20
2022-09-04T03:25:23.946Z,15.68
2022-09-04T03:27:26.612Z,15.00
2022-09-04T03:29:51.292Z,13.88
2022-09-04T03:32:17.852Z,14.50
2022-09-04T03:34:25.151Z,14.30
2022-09-04T03:37:05.546Z,14.75
2022-09-04T03:39:46.764Z,13.15
2022-09-04T03:42:20.086Z,13.57
2022-09-04T03:44:40.288Z,13.82
2022-09-04T03:47:00.453Z,14.30
2022-09-04T03:49:23.856Z,14.13
2022-09-04T03:51:46.153Z,13.52
2022-09-04T03:54:16.420Z,12.50
2022-09-04T03:56:39.796Z,12.68
2022-09-04T03:58:53.586Z,14.02
2022-09-04T04:00:58.213Z,14.27
2022-09-04T04:03:38.822Z,13.57
2022-09-04T04:05:59.011Z,12.90
2022-09-04T04:08:06.763Z,12.15
2022-09-04T04:10:14.306Z,11.98
2022-09-04T04:12:39.345Z,12.48
2022-09-04T04:14:51.450Z,12.35
2022-09-04T04:17:00.341Z,11.80
2022-09-04T04:19:14.497Z,11.82
2022-09-04T04:21:54.898Z,11.32
2022-09-04T04:23:59.473Z,11.63
2022-09-04T04:26:10.962Z,12.55
2022-09-04T04:28:32.775Z,12.00
2022-09-04T04:30:50.295Z,12.02
2022-09-04T04:33:08.451Z,11.02
2022-09-04T04:35:18.600Z,11.38
2022-09-04T04:37:37.041Z,10.98
2022-09-04T04:39:58.864Z,11.75
2022-09-04T04:42:13.264Z,12.23
2022-09-04T04:44:50.147Z,11.77
2022-09-04T04:47:15.813Z,11.75
2022-09-04T04:49:33.521Z,11.73
2022-09-04T04:51:47.130Z,11.35
2022-09-04T04:54:13.505Z,10.82
2022-09-04T04:56:22.730Z,11.63
2022-09-04T04:58:27.513Z,12.00
2022-09-04T05:00:41.171Z,12.00
2022-09-04T05:03:01.384Z,11.82
2022-09-04T05:05:18.468Z,13.02
2022-09-04T05:07:42.231Z,12.57
2022-09-04T05:09:58.268Z,12.65
2022-09-04T05:12:06.783Z,13.15
2022-09-04T05:14:47.523Z,13.15
2022-09-04T05:17:31.944Z,11.88
2022-09-04T05:19:39.783Z,12.13
2022-09-04T05:21:56.041Z,12.82
2022-09-04T05:24:05.224Z,12.77
2022-09-04T05:26:07.025Z,12.93
2022-09-04T05:28:20.412Z,11.15
2022-09-04T05:30:47.676Z,13.23
2022-09-04T05:33:15.476Z,12.15
2022-09-04T05:35:35.328Z,11.38
2022-09-04T05:37:43.261Z,12.30
2022-09-04T05:40:04.484Z,11.80
2022-09-04T05:42:06.957Z,11.65
2022-09-04T05:44:35.436Z,12.55
2022-09-04T05:47:26.478Z,12.30
2022-09-04T05:49:50.378Z,13.98
2022-09-04T05:52:09.000Z,14.25
2022-09-04T05:54:42.909Z,14.52
2022-09-04T05:57:02.317Z,14.63
2022-09-04T05:59:33.077Z,15.00
2022-09-04T06:01:59.629Z,15.38
2022-09-04T06:04:10.384Z,16.10
2022-09-04T06:06:12.415Z,15.88
2022-09-04T06:09:06.475Z,15.30
2022-09-04T06:11:32.369Z,15.85
2022-09-04T06:13:50.477Z,15.18
2022-09-04T06:16:10.849Z,16.67
2022-09-04T06:18:27.694Z,15.55
2022-09-04T06:20:50.940Z,16.30
2022-09-04T06:23:06.081Z,15.90
2022-09-04T06:25:10.756Z,15.18
2022-09-04T06:27:31.032Z,15.80
2022-09-04T06:29:48.430Z,15.48
2022-09-04T06:31:53.124Z,15.35
2022-09-04T06:34:01.074Z,14.57
2022-09-04T06:36:22.129Z,16.33
2022-09-04T06:38:43.178Z,15.65
2022-09-04T06:41:08.655Z,14.23
2022-09-04T06:43:19.558Z,14.38
2022-09-04T06:45:35.537Z,14.52
2022-09-04T06:48:02.272Z,13.10
2022-09-04T06:50:18.898Z,13.93
2022-09-04T06:52:30.093Z,13.00
2022-09-04T06:54:46.581Z,13.00
2022-09-04T06:57:00.306Z,12.65
2022-09-04T06:59:14.543Z,13.18
2022-09-04T07:01:19.754Z,11.65
2022-09-04T07:03:52.389Z,11.55
2022-09-04T07:06:23.423Z,10.90
2022-09-04T07:08:34.018Z,11.10
2022-09-04T07:10:41.664Z,11.27
2022-09-04T07:13:23.599Z,10.32
2022-09-04T07:15:50.204Z,9.90
2022-09-04T07:18:18.240Z,11.77
2022-09-04T07:20:36.420Z,11.52
2022-09-04T07:23:03.989Z,12.48
2022-09-04T07:25:26.396Z,11.77
2022-09-04T07:27:42.840Z,11.88
2022-09-04T07:30:17.438Z,14.00
2022-09-04T07:32:38.269Z,14.02
2022-09-04T07:34:39.853Z,14.82
2022-09-04T07:36:56.674Z,15.23
2022-09-04T07:39:04.102Z,14.82
2022-09-04T07:41:20.044Z,14.93
2022-09-04T07:43:37.038Z,16.33
2022-09-04T07:45:55.346Z,15.57
2022-09-04T07:48:17.728Z,15.88
2022-09-04T07:50:23.118Z,15.02
2022-09-04T07:52:34.709Z,15.88
2022-09-04T07:54:36.421Z,17.38
2022-09-04T07:57:16.508Z,17.77
2022-09-04T07:59:31.086Z,17.80
2022-09-04T08:02:03.542Z,17.33
2022-09-04T08:04:42.332Z,16.60
2022-09-04T08:06:50.013Z,18.17
2022-09-04T08:09:23.860Z,17.60
2022-09-04T08:11:45.508Z,17.83
2022-09-04T08:14:17.021Z,17.10
2022-09-04T08:16:32.868Z,15.35
2022-09-04T08:18:48.148Z,16.67
2022-09-04T08:21:21.608Z,17.05
2022-09-04T08:24:01.914Z,16.38
2022-09-04T08:26:14.626Z,16.33
2022-09-04T08:28:44.219Z,16.33
2022-09-04T08:31:18.261Z,15.15
2022-09-04T08:33:39.882Z,15.57
2022-09-04T08:35:59.804Z,13.75
2022-09-04T08:38:23.257Z,14.10
2022-09-04T08:41:06.922Z,13.98
2022-09-04T08:43:30.304Z,12.25
2022-09-04T08:46:06.969Z,12.95
2022-09-04T08:48:27.405Z,12.10
2022-09-04T08:50:39.826Z,11.40
2022-09-04T08:52:54.067Z,10.48
2022-09-04T08:55:21.626Z,10.05
2022-09-04T09:00:10.682Z,9.75
2022-09-04T09:02:21.325Z,10.27
2022-09-04T09:04:53.022Z,8.45
2022-09-04T09:07:19.457Z,8.32
2022-09-04T09:09:58.422Z,6.93
2022-09-04T09:12:09.219Z,6.80
2022-09-04T09:14:29.230Z,6.03
2022-09-04T09:16:52.623Z,6.13
2022-09-04T09:19:03.155Z,7.10
2022-09-04T09:21:49.478Z,6.70
2022-09-04T09:24:35.958Z,7.80
2022-09-04T09:27:02.152Z,6.78
2022-09-04T09:29:16.278Z,6.63
2022-09-04T09:31:34.518Z,6.38
2022-09-04T09:33:46.973Z,6.55
2022-09-04T09:36:09.343Z,5.72
2022-09-04T09:38:29.702Z,5.90
2022-09-04T09:40:32.273Z,6.07
2022-09-04T09:42:38.482Z,7.03
2022-09-04T09:45:15.534Z,6.53
2022-09-04T09:47:26.544Z,6.00
2022-09-04T09:49:28.106Z,6.80
2022-09-04T09:52:13.941Z,6.32
2022-09-04T09:54:38.488Z,6.20
2022-09-04T09:56:53.517Z,6.00
2022-09-04T09:59:19.989Z,6.20
2022-09-04T10:01:24.834Z,6.07
2022-09-04T10:03:39.022Z,6.03
2022-09-04T10:05:46.385Z,5.93
2022-09-04T10:08:06.689Z,5.88
2022-09-04T10:10:31.024Z,5.90
2022-09-04T10:13:01.406Z,5.80
2022-09-04T10:15:21.733Z,7.00
2022-09-04T10:18:20.661Z,6.18
2022-09-04T10:20:46.383Z,6.00
2022-09-04T10:23:24.930Z,5.93
2022-09-04T10:26:05.211Z,5.75
2022-09-04T10:28:21.885Z,5.72
2022-09-04T10:30:24.566Z,6.10
2022-09-04T10:32:33.100Z,6.32
2022-09-04T10:34:54.621Z,6.35
2022-09-04T10:37:33.847Z,6.25
2022-09-04T10:40:38.551Z,6.75
2022-09-04T10:43:10.217Z,6.15
2022-09-04T10:45:25.951Z,5.90
2022-09-04T10:48:03.656Z,6.00
2022-09-04T10:50:41.827Z,5.90
2022-09-04T10:53:01.542Z,6.38
2022-09-04T10:55:29.913Z,5.55
2022-09-04T10:58:00.729Z,5.28
2022-09-04T11:00:14.140Z,5.32
2022-09-04T11:02:53.330Z,5.30
2022-09-04T11:04:59.881Z,5.40
2022-09-04T11:07:28.564Z,5.85
2022-09-04T11:09:39.798Z,5.80
2022-09-04T11:12:03.327Z,5.82
2022-09-04T11:14:25.539Z,5.80
2022-09-04T11:16:48.974Z,5.22
2022-09-04T11:19:20.894Z,6.00
2022-09-04T11:21:32.613Z,5.25
2022-09-04T11:23:52.986Z,5.68
2022-09-04T11:26:31.842Z,5.60
2022-09-04T11:28:40.350Z,5.10
2022-09-04T11:30:48.610Z,5.30
2022-09-04T11:33:13.353Z,5.47
2022-09-04T11:35:22.191Z,5.07
2022-09-04T11:37:57.822Z,5.05
2022-09-04T11:40:16.609Z,5.28
2022-09-04T11:42:43.009Z,5.28
2022-09-04T11:45:05.800Z,5.05
2022-09-04T11:47:26.249Z,4.68
2022-09-04T11:49:52.610Z,4.63
2022-09-04T11:52:09.690Z,4.60
2022-09-04T11:54:41.936Z,4.38
2022-09-04T11:56:52.702Z,4.95
2022-09-04T11:59:15.537Z,4.53
2022-09-04T12:01:29.806Z,4.47
2022-09-04T12:03:56.362Z,4.85
2022-09-04T12:06:19.478Z,4.28
2022-09-04T12:08:44.157Z,3.80
2022-09-04T12:11:25.181Z,4.05
2022-09-04T12:14:02.260Z,4.40
2022-09-04T12:16:27.893Z,4.40
2022-09-04T12:18:54.632Z,4.32
2022-09-04T12:21:18.321Z,4.32
2022-09-04T12:23:28.689Z,4.38
2022-09-04T12:25:49.798Z,4.25
2022-09-04T12:28:05.220Z,5.18
2022-09-04T12:30:33.481Z,4.80
2022-09-04T12:32:57.101Z,4.70
2022-09-04T12:35:17.203Z,4.40
2022-09-04T12:37:43.640Z,4.20
2022-09-04T12:40:05.309Z,3.95
2022-09-04T12:42:16.745Z,4.53
2022-09-04T12:44:50.513Z,3.85
2022-09-04T12:47:04.688Z,4.00
2022-09-04T12:49:26.214Z,3.78
2022-09-04T12:51:35.949Z,4.00
2022-09-04T12:53:54.344Z,3.92
2022-09-04T12:56:28.279Z,3.80
2022-09-04T12:59:01.982Z,3.53
2022-09-04T13:01:30.520Z,4.07
2022-09-04T13:04:02.476Z,3.45
2022-09-04T13:06:19.902Z,3.30
2022-09-04T13:08:44.475Z,3.40
2022-09-04T13:10:55.311Z,3.33
2022-09-04T13:13:18.241Z,3.60
2022-09-04T13:15:38.480Z,3.80
2022-09-04T13:17:58.452Z,3.63
2022-09-04T13:20:20.883Z,3.10
2022-09-04T13:22:47.556Z,3.33
2022-09-04T13:25:15.392Z,3.20
2022-09-04T13:27:34.258Z,3.20
2022-09-04T13:30:02.893Z,3.03
2022-09-04T13:32:24.008Z,3.50
2022-09-04T13:34:35.720Z,3.38
2022-09-04T13:36:57.667Z,4.65
2022-09-04T13:39:05.830Z,4.18
2022-09-04T13:41:24.025Z,4.65
2022-09-04T13:43:55.031Z,4.50
2022-09-04T13:46:00.347Z,4.85
2022-09-04T13:48:16.051Z,4.90
2022-09-04T13:50:44.203Z,3.92
2022-09-04T13:52:46.883Z,3.00
2022-09-04T13:54:57.892Z,3.28
2022-09-04T13:57:16.137Z,3.28
2022-09-04T13:59:20.743Z,3.10
2022-09-04T14:01:25.811Z,3.28
2022-09-04T14:03:38.623Z,3.00
2022-09-04T14:05:40.468Z,3.03
2022-09-04T14:07:45.495Z,3.33
2022-09-04T14:09:48.971Z,3.30
2022-09-04T14:11:59.491Z,3.22
2022-09-04T14:14:10.980Z,2.85
2022-09-04T14:16:15.253Z,2.92
2022-09-04T14:18:45.365Z,3.60
2022-09-04T14:21:00.965Z,3.22
2022-09-04T14:23:28.773Z,3.00
2022-09-04T14:26:04.062Z,3.20
2022-09-04T14:28:08.671Z,2.85
2022-09-04T14:30:18.459Z,2.80
2022-09-04T14:32:47.771Z,2.97
2022-09-04T14:35:02.907Z,3.80
2022-09-04T14:37:42.650Z,2.85
2022-09-04T14:40:10.275Z,3.20
2022-09-04T14:42:31.122Z,3.33
2022-09-04T14:44:42.632Z,2.97
2022-09-04T14:47:00.718Z,3.03
2022-09-04T14:49:09.022Z,3.13
2022-09-04T14:51:15.437Z,3.22
2022-09-04T14:53:26.351Z,2.70
2022-09-04T14:55:52.009Z,2.83
2022-09-04T14:58:10.827Z,3.20
2022-09-04T15:00:17.371Z,3.25
2022-09-04T15:02:23.840Z,2.75
2022-09-04T15:04:34.130Z,2.78
2022-09-04T15:06:54.715Z,2.88
2022-09-04T15:09:26.538Z,3.15
2022-09-04T15:11:33.364Z,3.30
2022-09-04T15:13:47.269Z,2.83
2022-09-04T15:15:58.413Z,3.20
2022-09-04T15:18:23.576Z,3.13
2022-09-04T15:20:28.404Z,3.13
2022-09-04T15:22:47.597Z,2.85
2022-09-04T15:25:58.303Z,3.20
2022-09-04T15:28:04.575Z,3.55
2022-09-04T15:30:09.105Z,3.30
2022-09-04T15:32:14.228Z,3.45
2022-09-04T15:34:21.550Z,3.00
2022-09-04T15:36:24.158Z,3.30
2022-09-04T15:38:26.315Z,3.30
2022-09-04T15:40:35.298Z,2.70
2022-09-04T15:42:43.183Z,3.00
2022-09-04T15:44:46.945Z,3.00
2022-09-04T15:47:04.020Z,2.92
2022-09-04T15:49:15.119Z,3.35
2022-09-04T15:51:56.235Z,3.22
2022-09-04T15:54:15.445Z,2.88
2022-09-04T15:56:17.010Z,3.40
2022-09-04T15:58:37.814Z,3.08
2022-09-04T16:01:16.672Z,3.03
2022-09-04T16:03:29.453Z,3.50
2022-09-04T16:05:45.190Z,3.30
2022-09-04T16:08:05.469Z,3.20
2022-09-04T16:10:25.947Z,3.00
2022-09-04T16:12:32.630Z,3.20
2022-09-04T16:14:44.455Z,3.60
2022-09-04T16:16:53.487Z,3.58
2022-09-04T16:19:26.606Z,3.30
2022-09-04T16:21:32.285Z,4.00
2022-09-04T16:23:38.340Z,3.60
2022-09-04T16:25:48.289Z,3.88
2022-09-04T16:27:54.464Z,3.53
2022-09-04T16:29:59.968Z,3.80
2022-09-04T16:32:03.900Z,3.92
2022-09-04T16:34:26.252Z,4.22
2022-09-04T16:36:41.527Z,4.28
2022-09-04T16:39:13.418Z,4.13
2022-09-04T16:41:26.395Z,3.80
2022-09-04T16:43:34.264Z,3.75
2022-09-04T16:46:13.040Z,3.88
2022-09-04T16:48:34.983Z,3.88
2022-09-04T16:50:48.168Z,3.53
2022-09-04T16:53:13.792Z,3.78
2022-09-04T16:55:28.954Z,3.53
2022-09-04T16:57:42.094Z,4.07
2022-09-04T16:59:53.770Z,3.97
2022-09-04T17:02:01.215Z,4.28
2022-09-04T17:04:19.637Z,4.32
2022-09-04T17:06:30.513Z,4.35
2022-09-04T17:08:36.951Z,6.30
2022-09-04T17:11:04.385Z,7.95
2022-09-04T17:13:29.876Z,7.43
2022-09-04T17:15:55.386Z,6.53
2022-09-04T17:17:59.086Z,4.45
2022-09-04T17:28:55.846Z,4.05
2022-09-04T17:29:13.596Z,4.18
2022-09-04T17:29:18.361Z,3.85
2022-09-04T17:30:50.652Z,4.68
2022-09-04T17:37:13.364Z,5.20
2022-09-04T17:40:33.674Z,5.50
2022-09-04T17:40:47.087Z,4.93
2022-09-04T17:41:39.703Z,4.20
2022-09-04T17:44:22.365Z,4.70
2022-09-04T17:46:32.479Z,4.68
2022-09-04T17:48:41.237Z,4.30
2022-09-04T17:50:53.045Z,4.63
2022-09-04T17:53:00.851Z,5.20
2022-09-04T17:55:08.662Z,5.00
2022-09-04T17:57:15.062Z,5.57
2022-09-04T17:59:19.281Z,5.10
2022-09-04T18:01:27.454Z,5.00
2022-09-04T18:03:33.800Z,4.95
2022-09-04T18:05:51.658Z,4.93
2022-09-04T18:08:20.338Z,4.35
2022-09-04T18:10:31.456Z,5.03
2022-09-04T18:12:51.553Z,4.22
2022-09-04T18:15:16.478Z,5.10
2022-09-04T18:17:36.580Z,4.57
2022-09-04T18:19:38.321Z,4.82
2022-09-04T18:21:59.226Z,5.20
2022-09-04T18:24:16.617Z,5.07
2022-09-04T18:26:41.763Z,5.22
2022-09-04T18:28:55.265Z,5.10
2022-09-04T18:37:11.170Z,5.05
2022-09-04T18:37:25.490Z,5.28
2022-09-04T18:37:26.391Z,5.68
2022-09-04T18:39:50.623Z,5.68
2022-09-04T18:49:00.347Z,6.22
2022-09-04T18:50:44.270Z,6.15
2022-09-04T18:50:45.116Z,6.47
2022-09-04T18:51:35.038Z,5.68
2022-09-04T18:53:44.074Z,6.05
2022-09-04T18:55:51.385Z,6.57
2022-09-04T18:58:19.644Z,6.55
2022-09-04T19:00:54.087Z,6.35
2022-09-04T19:03:05.777Z,6.90
2022-09-04T19:05:09.281Z,7.35
2022-09-04T19:07:32.718Z,6.82
2022-09-04T19:09:55.503Z,7.07
2022-09-04T19:12:02.838Z,6.22
2022-09-04T19:14:10.954Z,7.53
2022-09-04T19:16:18.511Z,7.57
2022-09-04T19:18:26.798Z,6.43
2022-09-04T19:20:46.732Z,6.30
2022-09-04T19:22:54.122Z,6.45
2022-09-04T19:25:31.832Z,5.72
2022-09-04T19:27:39.838Z,6.20
2022-09-04T19:30:19.972Z,6.10
2022-09-04T19:32:34.213Z,6.88
2022-09-04T19:34:42.211Z,8.30
2022-09-04T19:36:54.970Z,7.63
2022-09-04T19:45:24.964Z,8.13
2022-09-04T19:45:59.170Z,5.97
2022-09-04T19:46:17.918Z,6.03
2022-09-04T19:47:27.335Z,5.43
2022-09-04T19:53:17.579Z,5.22
2022-09-04T19:53:33.251Z,4.90
2022-09-04T19:54:44.261Z,5.00
2022-09-04T19:57:32.941Z,4.80
2022-09-04T19:59:45.528Z,4.53
2022-09-04T20:02:02.783Z,4.70
2022-09-04T20:04:25.511Z,4.72
2022-09-04T20:06:32.704Z,4.68
2022-09-04T20:08:40.760Z,4.63
2022-09-04T20:10:46.172Z,5.50
2022-09-04T20:12:53.672Z,5.30
2022-09-04T20:15:11.555Z,4.72
2022-09-04T20:17:44.454Z,4.47
2022-09-04T20:19:48.944Z,4.78
2022-09-04T20:22:15.356Z,4.72
2022-09-04T20:24:28.452Z,4.85
2022-09-04T20:26:42.454Z,4.97
2022-09-04T20:31:05.219Z,4.55
2022-09-04T20:33:27.300Z,5.13
2022-09-04T20:35:35.548Z,5.32
2022-09-04T20:37:40.215Z,5.05
2022-09-04T20:40:14.115Z,4.40
2022-09-04T20:42:44.715Z,4.82
2022-09-04T20:47:26.157Z,5.22
2022-09-04T20:52:51.055Z,4.55
2022-09-04T20:52:55.060Z,4.60
2022-09-04T20:53:04.598Z,4.70
2022-09-04T20:55:33.513Z,3.72
2022-09-04T21:02:41.012Z,3.63
2022-09-04T21:03:24.385Z,4.20
2022-09-04T21:03:28.197Z,4.18
2022-09-04T21:05:59.827Z,4.68
2022-09-04T21:08:35.874Z,3.97
2022-09-04T21:10:55.456Z,3.80
2022-09-04T21:13:13.376Z,4.45
2022-09-04T21:15:22.128Z,4.30
2022-09-04T21:17:34.754Z,4.30
2022-09-04T21:20:12.798Z,4.93
2022-09-04T21:22:49.225Z,4.03
2022-09-04T21:25:25.909Z,4.40
2022-09-04T21:27:54.885Z,4.38
2022-09-04T21:30:13.099Z,4.60
2022-09-04T21:32:30.113Z,4.20
2022-09-04T21:34:54.031Z,4.63
2022-09-04T21:37:05.802Z,4.70
2022-09-04T21:39:41.358Z,5.05
2022-09-04T21:42:17.307Z,4.90
2022-09-04T21:44:34.493Z,5.03
2022-09-04T21:46:48.288Z,4.60
2022-09-04T21:49:27.056Z,4.50
2022-09-04T21:51:37.584Z,4.55
2022-09-04T21:55:13.291Z,4.78
2022-09-04T22:02:27.721Z,5.45
2022-09-04T22:02:43.612Z,4.70
2022-09-04T22:02:54.412Z,5.25
2022-09-04T22:05:07.309Z,6.05
2022-09-04T22:10:54.223Z,5.55
2022-09-04T22:13:28.351Z,6.05
2022-09-04T22:13:42.964Z,5.45
2022-09-04T22:15:10.570Z,5.53
2022-09-04T22:17:41.206Z,5.60
2022-09-04T22:19:43.006Z,5.43
2022-09-04T22:22:15.770Z,5.55
2022-09-04T22:24:20.152Z,5.50
2022-09-04T22:26:42.132Z,5.95
2022-09-04T22:28:43.701Z,5.90
2022-09-04T22:31:14.848Z,6.07
2022-09-04T22:33:35.953Z,5.97
2022-09-04T22:36:05.575Z,5.40
2022-09-04T22:38:28.819Z,5.13
2022-09-04T22:40:56.378Z,5.03
2022-09-04T22:43:13.491Z,5.72
2022-09-04T22:45:52.378Z,5.53
2022-09-04T22:48:15.710Z,5.25
2022-09-04T22:51:11.490Z,5.47
2022-09-04T22:53:44.344Z,5.10
2022-09-04T22:56:23.339Z,5.10
2022-09-04T23:01:02.422Z,4.95
2022-09-04T23:03:33.200Z,5.32
2022-09-04T23:07:17.284Z,5.40
2022-09-04T23:13:47.608Z,5.70
2022-09-04T23:13:52.518Z,4.93
2022-09-04T23:14:05.215Z,5.43
2022-09-04T23:16:28.266Z,5.45
2022-09-04T23:26:31.759Z,5.43
2022-09-04T23:26:38.422Z,4.60
2022-09-04T23:26:49.611Z,5.15
2022-09-04T23:27:01.563Z,5.43
2022-09-04T23:29:09.577Z,5.22
2022-09-04T23:31:19.980Z,5.85
2022-09-04T23:33:40.995Z,5.63
2022-09-04T23:35:42.694Z,5.40
2022-09-04T23:38:17.019Z,5.78
2022-09-04T23:40:35.683Z,5.25
2022-09-04T23:43:25.593Z,5.70
2022-09-04T23:45:36.790Z,6.15
2022-09-04T23:48:19.243Z,5.53
2022-09-04T23:50:38.720Z,5.97
2022-09-04T23:52:52.529Z,5.50
2022-09-04T23:54:56.686Z,6.38
2022-09-04T23:57:11.256Z,6.10
2022-09-04T23:59:44.307Z,6.75
